Página principal
METAR-TAF:

METAR-TAF

Aeroportos :

Aeroporto de Gran Canária

Gran Canária, Espanha

latitude: 27-56N, longitude: 015-23W, altura: 23 m

Observação actual do tempo

O boletim foi feito há 34 minutos, às 03:00 UTC
Vento 16 kt de norte
Temperatura 25°C
Humidade 57%
Pressão 1016 hPa
Visibilidade 10 km ou mais
Poucas nuvensa uma altura de 3000 ft

METAR: GCLP 240300Z 35016KT 9999 FEW030 25/16 Q1016 NOSIG

Hora: 04:34 (03:34 UTC)

Previsão

O boletim foi feito há 1 hora e 34 minutos, às 02:00 UTC
Previsão válida de 24 às 03 UTC a 25 às 03 UTC
Vento 16 kt de norte
Visibilidade 10 km ou mais
Poucas nuvensa uma altura de 2000 ft

TAF: GCLP 240200Z 2403/2503 36016KT 9999 FEW020 TX31/2415Z TN26/2405Z

Observações e previsões do tempo de mais de 4000 aeroportos (mensagens METAR e TAF).

As estações disponíveis são os pontos amarelos e vermelhos sobre o mapa.

Mova o rato sobre o mapa para ver o nome da estação.

Depois clique no ponto para visualizar as observações e previsões meteorológicas.

Para alterar o mapa : clique nos botões verdes com uma cruz preta para aumentar o zoom; no botão verde com uma pitada de zoom; ou nas setas verdes para mapas adjacentes.


METAR-TAF: